ESMS

Malmö Sturup Airport

Malmö, Sweden
METAR ESMS 221920Z 24005KT CAVOK 22/13 Q1012
Observed Flight Rules
Jul-22 @ 19:20 UTC (31 minutes ago) Visual Flight Rules
Wind Visibility Clouds
240° at 5 knots 10,000+ meters
  • Clear skies
Temperatures Readings
Current 22°C / 72°F
Dewpoint 13°C / 55°F
Humidity 57%
Altimeter 29.88" Hg
Pressure 1012 hPa
Elevation 106
METAR ESMS 221920Z 24005KT CAVOK 22/13 Q1012
Observed Flight Rules
Jul-22 @ 19:20 UTC
(31 minutes ago)
VFR
Wind Visibility
240° at 5 knots 10,000+ meters
Clouds
  • Clear skies
Temperature Dewpoint
22°C / 72°F 13°C / 55°F
Humidity Altimeter Pressure
57% 29.88" Hg 1012 hPa